Time;durP1;ratioP1;P1;durP2;ratioP2;P2;SDS_P1;SDS_P2;PMS_P1;PMS_P2;Temp;Humidity;BMP_temperature;BMP_pressure;BME280_temperature;BME280_humidity;BME280_pressure;Samples;Min_cycle;Max_cycle;Signal;HPM_P1;HPM_P2
2022/08/02 00:00:51;;;;;;;4.50;3.40;;;19.10;99.90;;;;;;5075593;28;20712;-76
2022/08/02 00:03:17;;;;;;;4.35;3.50;;;19.00;99.90;;;;;;5075415;28;20258;-76
2022/08/02 00:05:45;;;;;;;3.60;3.30;;;18.90;99.90;;;;;;5075277;28;20204;-76
2022/08/02 00:08:11;;;;;;;3.40;3.10;;;18.90;99.90;;;;;;5075176;28;20201;-76
2022/08/02 00:10:38;;;;;;;4.47;3.35;;;18.80;99.90;;;;;;5075087;28;20192;-76
2022/08/02 00:13:06;;;;;;;3.67;3.38;;;18.80;99.90;;;;;;5075315;28;20253;-76
2022/08/02 00:15:32;;;;;;;4.53;3.35;;;18.80;99.90;;;;;;5075209;28;20278;-76
2022/08/02 00:17:59;;;;;;;3.80;3.50;;;18.80;99.90;;;;;;5075190;28;20238;-76
2022/08/02 00:20:26;;;;;;;3.50;3.20;;;18.80;99.90;;;;;;5074939;28;20258;-76
2022/08/02 00:22:52;;;;;;;3.95;3.50;;;18.60;99.90;;;;;;5075020;28;20247;-76
2022/08/02 00:25:19;;;;;;;4.18;3.50;;;18.60;99.90;;;;;;5075096;28;20310;-76
2022/08/02 00:27:45;;;;;;;4.03;3.08;;;18.60;99.90;;;;;;5075016;28;20533;-77
2022/08/02 00:30:14;;;;;;;4.15;3.55;;;18.50;99.90;;;;;;5074625;28;20236;-76
2022/08/02 00:32:40;;;;;;;4.15;3.75;;;18.50;99.90;;;;;;5074815;28;20604;-76
2022/08/02 00:35:08;;;;;;;4.15;3.80;;;18.30;99.90;;;;;;5074562;28;20692;-76
2022/08/02 00:37:39;;;;;;;3.70;3.40;;;18.40;99.90;;;;;;5074555;28;20201;-76
2022/08/02 00:40:06;;;;;;;3.83;3.50;;;18.30;99.90;;;;;;5074474;28;20233;-76
2022/08/02 00:42:33;;;;;;;4.30;3.40;;;18.30;99.90;;;;;;5074785;28;20196;-76
2022/08/02 00:45:00;;;;;;;6.05;3.72;;;18.40;99.90;;;;;;5074676;28;20251;-77
2022/08/02 00:47:28;;;;;;;3.88;3.50;;;18.40;99.90;;;;;;5074408;28;20255;-77
2022/08/02 00:49:54;;;;;;;4.55;3.40;;;18.30;99.90;;;;;;5074365;28;20270;-76
2022/08/02 00:52:22;;;;;;;3.60;3.22;;;18.40;99.90;;;;;;5074300;28;20322;-76
2022/08/02 00:54:49;;;;;;;6.05;3.50;;;18.40;99.90;;;;;;5074494;28;20255;-76
2022/08/02 00:57:16;;;;;;;4.15;3.70;;;18.40;99.90;;;;;;5074324;28;20209;-76
2022/08/02 00:59:42;;;;;;;4.07;3.67;;;18.40;99.90;;;;;;5072968;28;20250;-76
2022/08/02 01:02:09;;;;;;;4.80;3.65;;;18.30;99.90;;;;;;5074290;28;20322;-76
2022/08/02 01:04:37;;;;;;;4.95;3.40;;;18.30;99.90;;;;;;5073954;28;20247;-76
2022/08/02 01:07:05;;;;;;;4.43;3.65;;;18.20;99.90;;;;;;5074171;28;20350;-77
2022/08/02 01:09:31;;;;;;;4.20;3.58;;;18.00;99.90;;;;;;5074153;28;20266;-76
2022/08/02 01:11:58;;;;;;;4.38;3.97;;;17.90;99.90;;;;;;5074107;28;20652;-76
2022/08/02 01:14:25;;;;;;;6.70;4.07;;;17.90;99.90;;;;;;5073882;28;20242;-76
2022/08/02 01:16:57;;;;;;;5.80;4.22;;;17.80;99.90;;;;;;5073813;28;20197;-76
2022/08/02 01:19:36;;;;;;;4.60;3.90;;;17.90;99.90;;;;;;5073681;28;20657;-77
2022/08/02 01:22:24;;;;;;;5.50;4.20;;;17.80;99.90;;;;;;5073945;28;20242;-76
2022/08/02 01:25:05;;;;;;;4.50;4.10;;;17.70;99.90;;;;;;5073663;28;20254;-76
2022/08/02 01:27:43;;;;;;;6.00;4.00;;;17.60;99.90;;;;;;5073603;28;20200;-76
2022/08/02 01:30:11;;;;;;;5.38;4.07;;;17.70;99.90;;;;;;5073755;28;20221;-76
2022/08/02 01:32:48;;;;;;;5.03;3.92;;;17.70;99.90;;;;;;5073632;28;20271;-76
2022/08/02 01:35:19;;;;;;;4.88;4.43;;;17.60;99.90;;;;;;5073522;28;20201;-76
2022/08/02 01:37:51;;;;;;;4.68;4.20;;;17.30;99.90;;;;;;5073404;28;20607;-76
2022/08/02 01:40:22;;;;;;;6.78;4.00;;;17.30;99.90;;;;;;5073164;28;20881;-76
2022/08/02 01:42:52;;;;;;;5.80;3.95;;;17.20;99.90;;;;;;5073514;28;20200;-75
2022/08/02 01:45:24;;;;;;;3.60;3.30;;;17.10;99.90;;;;;;5073359;28;20193;-77
2022/08/02 01:47:52;;;;;;;5.47;3.70;;;17.00;99.90;;;;;;5073329;28;20193;-76
2022/08/02 01:50:25;;;;;;;4.70;3.40;;;16.90;99.90;;;;;;5073051;28;20695;-76
2022/08/02 01:52:56;;;;;;;5.80;3.47;;;16.80;99.90;;;;;;5073556;28;20235;-76
2022/08/02 01:55:26;;;;;;;3.55;3.25;;;16.80;99.90;;;;;;5073310;28;20251;-76
2022/08/02 01:57:57;;;;;;;4.70;3.83;;;16.80;99.90;;;;;;5073256;28;20197;-76
2022/08/02 02:00:28;;;;;;;4.20;3.80;;;16.70;99.90;;;;;;5073196;28;20246;-76
2022/08/02 02:02:58;;;;;;;4.57;3.80;;;16.70;99.90;;;;;;5073060;28;20193;-76
2022/08/02 02:05:28;;;;;;;4.00;3.60;;;16.80;99.90;;;;;;5073083;28;20201;-77
2022/08/02 02:07:58;;;;;;;4.00;3.60;;;16.80;99.90;;;;;;5073183;28;20197;-76
2022/08/02 02:10:27;;;;;;;6.82;4.40;;;16.80;99.90;;;;;;5072621;28;20320;-77
2022/08/02 02:12:56;;;;;;;5.43;3.90;;;16.60;99.90;;;;;;5073053;28;20201;-76
2022/08/02 02:15:25;;;;;;;5.15;3.80;;;16.50;99.90;;;;;;5073182;28;20197;-76
2022/08/02 02:17:54;;;;;;;3.83;3.53;;;16.40;99.90;;;;;;5072881;28;20246;-76
2022/08/02 02:20:22;;;;;;;4.70;4.20;;;16.30;99.90;;;;;;5073221;28;20247;-77
2022/08/02 02:22:49;;;;;;;4.40;3.90;;;16.30;99.90;;;;;;5073206;28;20246;-77
2022/08/02 02:25:18;;;;;;;4.30;3.90;;;16.30;99.90;;;;;;5073083;28;20197;-77
2022/08/02 02:27:51;;;;;;;5.00;4.37;;;16.50;99.90;;;;;;5072789;28;20193;-76
2022/08/02 02:30:18;;;;;;;4.07;3.78;;;16.40;99.90;;;;;;5072688;28;20228;-76
2022/08/02 02:32:48;;;;;;;4.30;3.90;;;16.30;99.90;;;;;;5072850;28;20197;-76
2022/08/02 02:35:17;;;;;;;4.90;4.50;;;16.30;99.90;;;;;;5072764;28;20246;-77
2022/08/02 02:37:45;;;;;;;4.53;4.13;;;16.30;99.90;;;;;;5072832;28;20243;-77
2022/08/02 02:40:14;;;;;;;6.87;4.33;;;16.20;99.90;;;;;;5072462;28;20229;-76
2022/08/02 02:42:42;;;;;;;5.13;4.63;;;16.10;99.90;;;;;;5072446;28;20667;-76
2022/08/02 02:45:10;;;;;;;6.33;4.57;;;16.10;99.90;;;;;;5072794;28;20197;-77
2022/08/02 02:47:38;;;;;;;5.37;4.80;;;16.20;99.90;;;;;;5072906;28;20203;-76
2022/08/02 02:50:07;;;;;;;8.73;4.70;;;16.10;99.90;;;;;;5072708;28;20220;-77
2022/08/02 02:52:35;;;;;;;6.00;4.20;;;16.10;99.90;;;;;;5072628;28;20200;-76
2022/08/02 02:55:03;;;;;;;5.00;4.27;;;16.10;99.90;;;;;;5072591;28;20243;-77
2022/08/02 02:57:31;;;;;;;7.77;5.20;;;16.10;99.90;;;;;;5072686;28;20197;-75
2022/08/02 02:59:58;;;;;;;6.37;5.00;;;16.00;99.90;;;;;;5072355;28;20736;-76
2022/08/02 03:02:25;;;;;;;5.00;4.47;;;16.00;99.90;;;;;;5072475;28;20197;-77
2022/08/02 03:04:53;;;;;;;6.20;4.77;;;16.00;99.90;;;;;;5072664;28;20193;-76
2022/08/02 03:07:21;;;;;;;5.87;5.27;;;16.10;99.90;;;;;;5072444;28;20235;-76
2022/08/02 03:09:48;;;;;;;5.70;5.07;;;16.00;99.90;;;;;;5072148;28;20684;-76
2022/08/02 03:12:16;;;;;;;10.90;5.60;;;15.90;99.90;;;;;;5072508;28;20193;-76
2022/08/02 03:14:43;;;;;;;6.83;6.17;;;15.80;99.90;;;;;;5072459;28;20196;-76
2022/08/02 03:17:10;;;;;;;6.40;5.80;;;15.70;99.90;;;;;;5072429;28;20208;-76
2022/08/02 03:19:36;;;;;;;9.47;5.80;;;15.80;99.90;;;;;;5072243;28;20205;-76
2022/08/02 03:22:03;;;;;;;6.60;6.00;;;15.90;99.90;;;;;;5073684;28;20201;-76
2022/08/02 03:24:31;;;;;;;7.30;5.60;;;15.90;99.90;;;;;;5076008;28;20209;-77
2022/08/02 03:26:58;;;;;;;5.30;4.80;;;15.90;99.90;;;;;;5076104;28;20204;-76
2022/08/02 03:29:25;;;;;;;7.13;5.20;;;15.80;99.90;;;;;;5075919;28;20201;-76
2022/08/02 03:31:52;;;;;;;7.30;5.10;;;15.70;99.90;;;;;;5076100;28;20258;-76
2022/08/02 03:34:19;;;;;;;6.53;4.97;;;15.60;99.90;;;;;;5075838;28;20193;-76
2022/08/02 03:36:50;;;;;;;5.50;5.00;;;15.80;99.90;;;;;;5075675;28;20645;-76
2022/08/02 03:39:17;;;;;;;6.20;5.00;;;15.60;99.90;;;;;;5075991;28;20205;-76
2022/08/02 03:41:46;;;;;;;5.53;5.03;;;15.60;99.90;;;;;;5075475;28;20233;-76
2022/08/02 03:44:14;;;;;;;5.97;4.73;;;15.70;99.90;;;;;;5075576;28;20659;-76
2022/08/02 03:46:43;;;;;;;5.77;5.27;;;15.60;99.90;;;;;;5075608;28;20255;-76
2022/08/02 03:49:11;;;;;;;5.77;5.13;;;15.60;99.90;;;;;;5075552;28;20651;-76
2022/08/02 03:51:38;;;;;;;5.13;4.63;;;15.60;99.90;;;;;;5075840;28;20225;-76
2022/08/02 03:54:06;;;;;;;5.33;4.83;;;15.70;99.90;;;;;;5075875;28;20192;-76
2022/08/02 03:56:33;;;;;;;5.80;5.20;;;15.80;99.90;;;;;;5075589;28;20193;-77
2022/08/02 03:59:12;;;;;;;9.80;5.30;;;15.80;99.90;;;;;;5075523;28;20211;-76
2022/08/02 04:01:40;;;;;;;6.07;4.77;;;15.80;99.90;;;;;;5075678;28;20197;-76
2022/08/02 04:04:07;;;;;;;5.30;4.80;;;15.80;99.90;;;;;;5075610;28;20201;-76
2022/08/02 04:06:34;;;;;;;6.87;4.80;;;15.80;99.90;;;;;;5075508;28;20197;-76
2022/08/02 04:09:01;;;;;;;9.47;5.27;;;15.70;99.90;;;;;;5075332;28;20251;-76
2022/08/02 04:11:30;;;;;;;6.63;4.73;;;15.60;99.90;;;;;;5075155;28;20225;-76
2022/08/02 04:13:57;;;;;;;7.40;5.07;;;15.50;99.90;;;;;;5075171;28;20360;-76
2022/08/02 04:16:31;;;;;;;8.40;5.23;;;15.50;99.90;;;;;;5075043;28;20254;-76
2022/08/02 04:19:01;;;;;;;7.53;5.50;;;15.60;99.90;;;;;;5075257;28;20197;-76
2022/08/02 04:21:32;;;;;;;6.17;5.27;;;15.60;99.90;;;;;;5075142;28;20250;-76
2022/08/02 04:24:00;;;;;;;6.27;5.67;;;15.60;99.90;;;;;;5075062;28;20197;-76
2022/08/02 04:26:27;;;;;;;7.87;5.57;;;15.50;99.90;;;;;;5074925;28;20200;-76
2022/08/02 04:28:54;;;;;;;6.37;5.77;;;15.50;99.90;;;;;;5074704;28;20619;-76
2022/08/02 04:31:22;;;;;;;9.87;5.73;;;15.60;99.90;;;;;;5074943;28;20229;-77
2022/08/02 04:33:50;;;;;;;6.40;5.30;;;15.70;99.90;;;;;;5074584;28;20201;-77
2022/08/02 04:36:17;;;;;;;6.77;4.97;;;15.70;99.90;;;;;;5074798;28;20197;-76
2022/08/02 04:38:44;;;;;;;7.97;7.17;;;15.70;99.90;;;;;;5074620;28;20246;-74
2022/08/02 04:41:10;;;;;;;7.93;6.20;;;15.70;99.90;;;;;;5074389;28;20228;-74
2022/08/02 04:43:37;;;;;;;6.57;5.57;;;15.80;99.90;;;;;;5074520;28;20201;-74
2022/08/02 04:46:03;;;;;;;7.00;6.07;;;15.80;99.90;;;;;;5074701;28;20201;-74
2022/08/02 04:48:30;;;;;;;6.60;5.97;;;16.00;99.90;;;;;;5074620;28;20197;-74
2022/08/02 04:50:59;;;;;;;7.90;6.43;;;16.10;99.90;;;;;;5074377;28;20221;-74
2022/08/02 04:53:25;;;;;;;6.07;5.27;;;16.20;99.90;;;;;;5074342;28;20251;-74
2022/08/02 04:55:52;;;;;;;8.60;5.60;;;16.30;99.90;;;;;;5074631;28;20247;-74
2022/08/02 04:58:19;;;;;;;8.77;5.28;;;16.40;99.90;;;;;;5074281;28;20204;-74
2022/08/02 05:00:46;;;;;;;5.63;5.13;;;16.40;99.90;;;;;;5074295;28;20197;-74
2022/08/02 05:03:13;;;;;;;7.33;5.60;;;16.50;99.90;;;;;;5074386;28;20193;-74
2022/08/02 05:05:40;;;;;;;7.20;5.80;;;16.60;99.90;;;;;;5074308;28;20201;-74
2022/08/02 05:08:08;;;;;;;5.43;4.93;;;16.80;99.90;;;;;;5074199;28;20556;-74
2022/08/02 05:10:34;;;;;;;5.93;5.32;;;16.90;99.90;;;;;;5074079;28;20267;-74
2022/08/02 05:13:04;;;;;;;8.30;5.78;;;17.10;99.90;;;;;;5074698;28;20201;-74
2022/08/02 05:15:31;;;;;;;5.70;4.72;;;17.20;99.90;;;;;;5075337;28;20201;-74
2022/08/02 05:17:57;;;;;;;5.53;5.00;;;17.20;99.90;;;;;;5074598;28;20246;-75
2022/08/02 05:20:24;;;;;;;5.72;5.22;;;17.20;99.90;;;;;;5074108;28;20201;-74
2022/08/02 05:22:51;;;;;;;5.32;4.78;;;17.30;99.90;;;;;;5074049;28;20201;-74
2022/08/02 05:25:18;;;;;;;7.00;5.60;;;17.30;99.90;;;;;;5073753;28;20262;-74
2022/08/02 05:27:45;;;;;;;7.57;5.25;;;17.30;99.90;;;;;;5074199;28;20201;-74
2022/08/02 05:30:12;;;;;;;6.78;4.93;;;17.30;99.90;;;;;;5073759;28;20201;-74
2022/08/02 05:32:47;;;;;;;6.95;5.07;;;17.40;99.90;;;;;;5073670;28;20197;-74
2022/08/02 05:35:16;;;;;;;5.30;4.85;;;17.50;99.90;;;;;;5073620;28;20238;-74
2022/08/02 05:37:43;;;;;;;8.95;6.53;;;17.60;99.90;;;;;;5073420;28;20591;-74
2022/08/02 05:40:10;;;;;;;8.63;6.30;;;17.70;99.90;;;;;;5073165;28;20275;-74
2022/08/02 05:42:38;;;;;;;9.85;5.60;;;18.00;99.90;;;;;;5073455;28;20196;-74
2022/08/02 05:45:07;;;;;;;7.30;4.88;;;18.10;99.90;;;;;;5072785;28;20231;-74
2022/08/02 05:47:33;;;;;;;6.07;4.65;;;18.20;99.90;;;;;;5073316;28;20254;-75
2022/08/02 05:50:00;;;;;;;6.63;5.25;;;18.30;99.90;;;;;;5073245;28;20242;-74
2022/08/02 05:52:36;;;;;;;5.97;4.60;;;18.40;99.90;;;;;;5073160;28;20196;-74
2022/08/02 05:55:07;;;;;;;5.18;4.68;;;18.40;99.90;;;;;;5073192;28;20193;-74
2022/08/02 05:57:42;;;;;;;5.25;4.60;;;18.30;99.90;;;;;;5073389;28;20201;-75
2022/08/02 06:00:11;;;;;;;8.60;5.57;;;18.30;99.90;;;;;;5073116;28;20207;-74
2022/08/02 06:02:53;;;;;;;6.03;4.85;;;18.30;99.90;;;;;;5072961;28;20335;-74
2022/08/02 06:05:20;;;;;;;7.45;4.85;;;18.30;99.90;;;;;;5073135;28;20197;-74
2022/08/02 06:07:49;;;;;;;4.78;4.28;;;18.40;99.90;;;;;;5073036;28;20205;-74
2022/08/02 06:10:21;;;;;;;4.78;4.35;;;18.50;99.90;;;;;;5072648;28;20656;-74
2022/08/02 06:12:51;;;;;;;6.75;4.32;;;18.60;99.90;;;;;;5072854;28;20207;-74
2022/08/02 06:15:20;;;;;;;7.78;4.88;;;18.70;99.90;;;;;;5072841;28;20250;-76
2022/08/02 06:17:47;;;;;;;6.55;4.78;;;18.70;99.90;;;;;;5071869;28;20193;-75
2022/08/02 06:20:14;;;;;;;5.68;5.10;;;18.80;99.90;;;;;;5072602;28;20674;-74
2022/08/02 06:22:43;;;;;;;6.20;5.18;;;18.90;99.90;;;;;;5072487;28;20675;-75
2022/08/02 06:25:11;;;;;;;5.03;4.63;;;19.00;99.90;;;;;;5072494;28;20204;-75
2022/08/02 06:27:38;;;;;;;6.25;5.10;;;19.10;99.90;;;;;;5072735;28;20254;-74
2022/08/02 06:30:08;;;;;;;6.68;5.07;;;19.10;99.90;;;;;;5072634;28;20250;-74
2022/08/02 06:32:35;;;;;;;5.85;5.28;;;19.10;99.90;;;;;;5072815;28;20220;-74
2022/08/02 06:35:03;;;;;;;8.23;5.82;;;19.20;99.90;;;;;;5072615;28;20266;-74
2022/08/02 06:37:36;;;;;;;6.28;5.50;;;19.30;99.90;;;;;;5072741;28;20193;-74
2022/08/02 06:40:11;;;;;;;7.25;5.68;;;19.40;99.90;;;;;;5072477;28;20316;-74
2022/08/02 06:42:47;;;;;;;6.68;5.75;;;19.60;99.90;;;;;;5072465;28;20584;-74
2022/08/02 06:45:16;;;;;;;6.80;5.13;;;19.70;99.90;;;;;;5072717;28;20196;-75
2022/08/02 06:47:42;;;;;;;10.13;5.40;;;19.80;99.90;;;;;;5072493;28;20204;-75
2022/08/02 06:50:10;;;;;;;8.00;4.90;;;20.00;99.90;;;;;;5072417;28;20246;-75
2022/08/02 06:52:36;;;;;;;5.80;5.20;;;20.10;99.90;;;;;;5072338;28;20224;-75
2022/08/02 06:55:05;;;;;;;7.47;5.70;;;20.10;99.90;;;;;;5072786;28;20204;-75
2022/08/02 06:57:33;;;;;;;9.20;5.38;;;20.20;99.90;;;;;;5076208;28;20262;-75
2022/08/02 07:00:01;;;;;;;9.88;5.85;;;20.10;99.90;;;;;;5076587;28;20193;-74
2022/08/02 07:02:30;;;;;;;6.55;5.70;;;20.30;99.90;;;;;;5076484;28;20231;-75
2022/08/02 07:04:56;;;;;;;7.68;5.50;;;20.40;99.90;;;;;;5076349;28;20591;-75
2022/08/02 07:07:23;;;;;;;20.60;6.03;;;20.50;99.90;;;;;;5076418;28;20208;-75
2022/08/02 07:09:50;;;;;;;6.00;5.38;;;20.70;99.90;;;;;;5076613;28;20205;-75
2022/08/02 07:12:17;;;;;;;5.63;4.88;;;20.70;99.90;;;;;;5076484;28;20228;-75
2022/08/02 07:14:44;;;;;;;5.38;4.55;;;20.90;99.90;;;;;;5076262;28;20193;-75
2022/08/02 07:17:11;;;;;;;5.15;4.68;;;21.20;99.90;;;;;;5075882;28;20212;-75
2022/08/02 07:19:39;;;;;;;5.88;5.28;;;21.30;99.90;;;;;;5075852;28;20197;-75
2022/08/02 07:22:05;;;;;;;5.70;4.45;;;21.40;99.90;;;;;;5076430;28;20193;-75
2022/08/02 07:24:32;;;;;;;8.90;4.85;;;21.60;99.90;;;;;;5074323;28;20242;-75
2022/08/02 07:26:59;;;;;;;6.25;4.93;;;21.90;99.90;;;;;;5074578;28;20197;-75
2022/08/02 07:29:26;;;;;;;5.00;4.50;;;22.00;99.90;;;;;;5075805;28;20204;-74
2022/08/02 07:31:53;;;;;;;6.50;4.30;;;22.30;99.90;;;;;;5085061;28;20620;-74
2022/08/02 07:34:19;;;;;;;5.18;4.68;;;22.40;99.90;;;;;;5095952;28;20197;-75
2022/08/02 07:36:47;;;;;;;5.53;5.03;;;22.40;99.90;;;;;;5096093;28;20693;-75
2022/08/02 07:39:14;;;;;;;6.60;4.43;;;22.70;99.90;;;;;;5096765;28;20200;-75
2022/08/02 07:41:41;;;;;;;5.82;4.47;;;23.00;99.90;;;;;;5096614;28;20232;-75
2022/08/02 07:44:07;;;;;;;5.50;5.03;;;23.30;99.90;;;;;;5096361;28;20230;-79
2022/08/02 07:46:34;;;;;;;6.88;5.60;;;23.30;99.90;;;;;;5079444;28;20197;-78
2022/08/02 07:49:01;;;;;;;8.23;5.40;;;23.20;99.90;;;;;;5075592;28;20674;-78
2022/08/02 07:51:27;;;;;;;5.50;5.00;;;23.30;99.90;;;;;;5075276;28;20591;-78
2022/08/02 07:53:55;;;;;;;9.25;5.32;;;23.30;99.90;;;;;;5075541;28;20239;-77
2022/08/02 07:56:22;;;;;;;5.78;4.88;;;23.30;99.90;;;;;;5075338;28;20547;-77
2022/08/02 07:58:48;;;;;;;5.10;4.68;;;23.50;99.90;;;;;;5075174;28;20272;-78
2022/08/02 08:01:15;;;;;;;5.80;5.25;;;23.30;99.90;;;;;;5075407;28;20218;-77
2022/08/02 08:03:42;;;;;;;5.55;5.05;;;23.50;99.90;;;;;;5075541;28;20200;-78
2022/08/02 08:06:09;;;;;;;6.50;5.03;;;23.40;99.90;;;;;;5075541;28;20262;-78
2022/08/02 08:08:35;;;;;;;5.40;4.95;;;23.40;99.90;;;;;;5074579;28;20691;-78
2022/08/02 08:11:03;;;;;;;5.88;5.28;;;23.40;99.90;;;;;;5075287;28;20197;-78
2022/08/02 08:13:30;;;;;;;5.75;5.25;;;23.40;99.90;;;;;;5075223;28;20193;-76
2022/08/02 08:15:56;;;;;;;6.10;4.63;;;23.70;99.90;;;;;;5075134;28;20200;-76
2022/08/02 08:18:23;;;;;;;5.75;5.13;;;23.70;99.90;;;;;;5075602;28;20200;-77
2022/08/02 08:20:50;;;;;;;6.95;5.68;;;23.90;99.90;;;;;;5075467;28;20246;-76
2022/08/02 08:23:17;;;;;;;5.30;4.80;;;24.00;99.90;;;;;;5075183;28;20192;-78
2022/08/02 08:25:43;;;;;;;5.20;4.70;;;24.20;99.90;;;;;;5075042;28;20668;-76
2022/08/02 08:28:11;;;;;;;6.43;4.72;;;24.40;99.90;;;;;;5075012;28;20653;-77
2022/08/02 08:30:40;;;;;;;8.05;4.88;;;24.80;99.90;;;;;;5074725;28;20546;-77
2022/08/02 08:33:07;;;;;;;5.05;4.53;;;24.60;99.90;;;;;;5075051;28;20229;-78
2022/08/02 08:35:33;;;;;;;6.15;4.68;;;24.60;99.90;;;;;;5075067;28;20254;-78
2022/08/02 08:38:00;;;;;;;4.53;4.13;;;24.90;99.90;;;;;;5074921;28;20238;-78
2022/08/02 08:40:27;;;;;;;6.20;4.68;;;24.90;99.90;;;;;;5074689;28;20278;-77
2022/08/02 08:42:53;;;;;;;6.85;4.72;;;24.90;99.90;;;;;;5074560;28;20664;-78
2022/08/02 08:45:21;;;;;;;4.40;4.00;;;25.10;99.90;;;;;;5074561;28;20648;-78
2022/08/02 08:47:54;;;;;;;5.10;4.45;;;25.20;99.90;;;;;;5074533;28;20604;-77
2022/08/02 08:50:25;;;;;;;6.38;4.57;;;24.90;99.90;;;;;;5074524;28;20255;-77
2022/08/02 08:52:57;;;;;;;4.47;3.78;;;24.70;99.90;;;;;;5074470;28;20224;-76
2022/08/02 08:55:25;;;;;;;3.80;3.45;;;24.80;99.90;;;;;;5074594;28;20275;-78
2022/08/02 08:57:54;;;;;;;5.35;4.10;;;25.30;99.90;;;;;;5074602;28;20197;-78
2022/08/02 09:00:22;;;;;;;4.72;3.90;;;25.70;99.90;;;;;;5074527;28;20201;-77
2022/08/02 09:02:50;;;;;;;4.28;3.88;;;26.40;99.90;;;;;;5074353;28;20263;-78
2022/08/02 09:05:17;;;;;;;4.38;3.72;;;26.10;99.90;;;;;;5074109;28;20197;-79
2022/08/02 09:07:47;;;;;;;4.03;3.70;;;26.30;99.90;;;;;;5074862;28;20205;-83
2022/08/02 09:10:37;;;;;;;5.82;3.88;;;26.10;99.90;;;;;;5074217;28;20200;-77
2022/08/02 09:13:14;;;;;;;4.18;3.88;;;26.10;99.90;;;;;;5073956;28;20306;-77
2022/08/02 09:15:44;;;;;;;4.63;3.97;;;26.10;99.90;;;;;;5074257;28;20572;-78
2022/08/02 09:18:12;;;;;;;4.00;3.70;;;26.50;99.90;;;;;;5074321;28;20235;-78
2022/08/02 09:20:53;;;;;;;5.95;4.00;;;27.00;99.90;;;;;;5072966;28;20197;-78
2022/08/02 09:23:21;;;;;;;7.95;3.90;;;27.80;99.90;;;;;;5073967;28;20251;-79
2022/08/02 09:25:56;;;;;;;4.15;3.78;;;28.30;99.90;;;;;;5074371;28;20197;-77
2022/08/02 09:28:27;;;;;;;4.70;4.30;;;27.60;99.90;;;;;;5074276;28;20669;-79
2022/08/02 09:31:02;;;;;;;4.60;4.20;;;27.80;99.90;;;;;;5073649;28;20755;-77
2022/08/02 09:33:29;;;;;;;4.32;3.92;;;28.20;99.90;;;;;;5076331;28;20228;-78
2022/08/02 09:36:00;;;;;;;5.03;3.88;;;28.30;99.90;;;;;;5078187;28;20204;-78
2022/08/02 09:38:27;;;;;;;4.53;3.80;;;28.90;99.90;;;;;;5075419;28;20326;-76
2022/08/02 09:41:04;;;;;;;4.93;3.63;;;29.10;99.00;;;;;;5152076;27;20527;-79
2022/08/02 09:43:36;;;;;;;4.50;3.90;;;29.30;97.30;;;;;;5131433;28;20202;-77
2022/08/02 09:46:13;;;;;;;4.15;3.80;;;28.60;98.50;;;;;;5131299;28;20191;-77
2022/08/02 09:48:51;;;;;;;4.00;3.60;;;28.30;98.80;;;;;;5131144;28;20624;-77
2022/08/02 09:51:19;;;;;;;3.88;3.58;;;28.20;98.80;;;;;;5131239;28;20212;-80
2022/08/02 09:53:47;;;;;;;4.07;3.67;;;29.00;99.20;;;;;;5131037;28;20240;-79
2022/08/02 09:56:17;;;;;;;4.75;3.63;;;29.30;98.40;;;;;;5130797;28;20195;-80
2022/08/02 09:58:44;;;;;;;4.22;3.92;;;30.20;97.40;;;;;;5130838;28;20293;-80
2022/08/02 10:01:11;;;;;;;4.43;4.03;;;31.30;94.00;;;;;;5130873;28;20191;-80
2022/08/02 10:03:46;;;;;;;5.32;3.45;;;31.30;91.80;;;;;;5130626;28;20203;-80
2022/08/02 10:06:13;;;;;;;3.78;3.47;;;31.50;91.60;;;;;;5130729;28;20198;-79
2022/08/02 10:08:40;;;;;;;6.57;3.58;;;30.80;91.20;;;;;;5130582;28;20199;-79
2022/08/02 10:11:06;;;;;;;3.60;3.30;;;31.30;90.90;;;;;;5130807;28;20244;-81
2022/08/02 10:13:36;;;;;;;4.72;3.67;;;32.10;89.10;;;;;;5131132;28;20248;-78
2022/08/02 10:16:04;;;;;;;3.65;3.35;;;32.60;84.50;;;;;;5130380;28;20666;-78
2022/08/02 10:18:31;;;;;;;4.82;3.33;;;33.20;82.30;;;;;;5129098;28;20187;-79
2022/08/02 10:21:02;;;;;;;3.20;3.00;;;33.20;76.60;;;;;;5128785;28;20230;-79
2022/08/02 10:23:34;;;;;;;4.65;3.28;;;32.60;75.50;;;;;;5130495;28;20194;-77
2022/08/02 10:26:04;;;;;;;4.10;3.67;;;32.50;73.20;;;;;;5130224;28;20661;-79
2022/08/02 10:28:31;;;;;;;3.90;3.55;;;32.80;71.60;;;;;;5130339;28;20240;-77
2022/08/02 10:31:02;;;;;;;3.55;3.25;;;32.30;70.50;;;;;;5119004;28;20282;-80
2022/08/02 10:33:29;;;;;;;3.55;3.25;;;32.30;70.50;;;;;;5119282;28;20649;-80
2022/08/02 10:35:58;;;;;;;3.97;3.17;;;33.20;68.50;;;;;;5130120;28;20198;-78
2022/08/02 10:38:26;;;;;;;3.42;3.00;;;33.90;65.80;;;;;;5129174;28;20228;-79
2022/08/02 10:40:54;;;;;;;3.30;3.00;;;33.90;61.40;;;;;;5129556;28;20268;-79
2022/08/02 10:43:44;;;;;;;3.17;2.88;;;33.40;61.10;;;;;;5129563;28;20199;-78
2022/08/02 10:46:23;;;;;;;3.65;2.80;;;33.00;62.50;;;;;;5129745;28;20596;-79
2022/08/02 10:49:18;;;;;;;7.53;3.03;;;32.80;61.80;;;;;;5129535;28;20198;-79
2022/08/02 10:52:13;;;;;;;3.03;2.80;;;32.50;60.30;;;;;;5071788;28;20290;-79
2022/08/02 10:54:41;;;;;;;3.10;2.90;;;32.70;61.00;;;;;;5068465;28;20203;-79
2022/08/02 10:57:20;;;;;;;5.18;2.95;;;33.50;59.70;;;;;;5116772;28;20221;-78
2022/08/02 10:59:47;;;;;;;3.50;2.50;;;34.90;57.80;;;;;;5116608;28;20273;-80
2022/08/02 11:02:37;;;;;;;2.85;2.60;;;35.10;54.10;;;;;;5116618;28;20209;-80
2022/08/02 11:05:16;;;;;;;3.03;2.70;;;36.50;51.60;;;;;;5099168;28;20206;-78
2022/08/02 11:07:45;;;;;;;4.63;2.60;;;37.70;48.00;;;;;;5096555;28;20248;-79
2022/08/02 11:10:45;;;;;;;3.88;2.55;;;37.10;45.20;;;;;;5095378;28;20308;-77
2022/08/02 11:13:13;;;;;;;4.63;2.67;;;37.40;43.10;;;;;;5111142;28;20183;-79
2022/08/02 11:15:57;;;;;;;2.75;2.55;;;38.20;41.50;;;;;;5110366;28;20223;-80
2022/08/02 11:19:00;;;;;;;4.63;2.35;;;38.40;39.10;;;;;;5098168;28;20195;-78
2022/08/02 11:21:28;;;;;;;2.80;2.60;;;39.80;36.50;;;;;;5111371;28;20252;-80
2022/08/02 11:23:56;;;;;;;2.65;2.45;;;38.90;34.70;;;;;;5113420;28;20195;-78
2022/08/02 11:26:41;;;;;;;3.88;2.30;;;38.20;34.40;;;;;;5113274;28;20195;-79
2022/08/02 11:29:08;;;;;;;2.72;2.53;;;36.70;33.80;;;;;;5112659;28;20191;-79
2022/08/02 11:31:42;;;;;;;2.70;2.50;;;35.00;36.80;;;;;;5114810;28;20253;-81
2022/08/02 11:34:10;;;;;;;2.92;2.53;;;34.00;38.40;;;;;;5110874;28;20240;-78
2022/08/02 11:36:48;;;;;;;3.90;2.70;;;33.60;39.50;;;;;;5110642;28;20199;-77
2022/08/02 11:39:16;;;;;;;4.75;2.80;;;33.20;39.40;;;;;;5107499;28;20695;-78
2022/08/02 11:41:43;;;;;;;3.28;2.97;;;32.70;40.40;;;;;;5083052;28;20237;-78
2022/08/02 11:44:10;;;;;;;3.47;3.00;;;32.70;40.50;;;;;;5094186;28;20598;-79
2022/08/02 11:46:37;;;;;;;2.58;2.38;;;34.40;39.20;;;;;;5093916;28;20207;-78
2022/08/02 11:49:17;;;;;;;2.72;2.22;;;36.50;38.30;;;;;;5094496;28;20200;-80
2022/08/02 11:51:55;;;;;;;2.53;2.30;;;38.40;35.60;;;;;;5094551;28;20551;-80
2022/08/02 11:54:26;;;;;;;2.85;2.65;;;38.70;34.00;;;;;;5094546;28;20245;-78
2022/08/02 11:56:53;;;;;;;3.33;2.60;;;38.90;31.80;;;;;;5094177;28;20191;-78
2022/08/02 11:59:20;;;;;;;2.80;2.50;;;38.10;32.00;;;;;;5094332;28;20200;-80
2022/08/02 12:01:47;;;;;;;2.60;2.40;;;38.80;30.80;;;;;;5094306;28;20192;-79
2022/08/02 12:04:20;;;;;;;5.10;2.53;;;37.70;30.60;;;;;;5109480;28;20248;-77
2022/08/02 12:06:57;;;;;;;2.88;2.67;;;37.00;31.20;;;;;;5114663;28;20252;-78
2022/08/02 12:09:25;;;;;;;3.03;2.67;;;36.70;31.30;;;;;;5114514;28;20247;-78
2022/08/02 12:11:52;;;;;;;3.00;2.40;;;35.90;30.60;;;;;;5114668;28;20199;-75
2022/08/02 12:14:19;;;;;;;2.78;2.40;;;37.40;30.60;;;;;;5114465;28;20191;-78
2022/08/02 12:19:32;;;;;;;2.60;2.40;;;38.80;29.40;;;;;;5114166;28;20199;-79
2022/08/02 12:22:16;;;;;;;2.40;2.20;;;37.70;27.90;;;;;;5114093;28;20252;-77
2022/08/02 12:24:45;;;;;;;2.58;2.38;;;37.50;28.40;;;;;;5114052;28;20240;-79
2022/08/02 12:27:31;;;;;;;2.60;2.40;;;38.30;27.10;;;;;;5113904;28;20252;-77
2022/08/02 12:30:03;;;;;;;2.28;2.08;;;38.70;27.30;;;;;;5101598;28;20257;-75
2022/08/02 12:32:30;;;;;;;3.90;3.30;;;40.60;26.60;;;;;;5099325;28;20196;-76
2022/08/02 12:35:10;;;;;;;2.58;2.38;;;41.60;25.20;;;;;;5090585;28;20651;-77
2022/08/02 12:37:37;;;;;;;2.63;2.42;;;41.10;25.00;;;;;;5073305;28;20249;-78
2022/08/02 12:40:25;;;;;;;2.80;2.60;;;39.20;25.40;;;;;;5102069;28;20223;-77
2022/08/02 12:42:55;;;;;;;2.30;2.10;;;39.10;25.60;;;;;;5113706;28;20523;-78
2022/08/02 12:45:22;;;;;;;3.10;2.40;;;40.40;25.80;;;;;;5113717;28;20205;-77
2022/08/02 12:47:51;;;;;;;2.97;2.42;;;41.60;24.60;;;;;;5113639;28;20286;-77
2022/08/02 12:50:20;;;;;;;2.65;2.45;;;40.80;23.60;;;;;;5089995;28;20192;-76
2022/08/02 12:52:48;;;;;;;4.00;2.30;;;40.40;23.50;;;;;;5072392;28;20270;-77
2022/08/02 12:55:19;;;;;;;2.53;2.03;;;39.90;23.40;;;;;;5080649;28;20192;-75
2022/08/02 12:57:54;;;;;;;2.38;2.20;;;38.40;23.70;;;;;;5078214;28;20235;-76
2022/08/02 13:00:26;;;;;;;4.22;2.50;;;37.80;24.10;;;;;;5088478;28;20742;-78